createdAt,value
2023-03-22T00:00:29.498Z,16.20
2023-03-22T00:02:56.735Z,16.20
2023-03-22T00:05:31.576Z,16.20
2023-03-22T00:07:58.522Z,16.10
2023-03-22T00:10:25.985Z,16.10
2023-03-22T00:12:52.906Z,16.10
2023-03-22T00:15:19.860Z,16.10
2023-03-22T00:17:46.539Z,16.10
2023-03-22T00:20:13.174Z,16.10
2023-03-22T00:22:39.971Z,16.10
2023-03-22T00:25:06.892Z,16.10
2023-03-22T00:27:33.591Z,16.10
2023-03-22T00:30:00.260Z,16.00
2023-03-22T00:32:26.935Z,16.10
2023-03-22T00:34:59.660Z,16.10
2023-03-22T00:37:27.793Z,16.00
2023-03-22T00:39:54.447Z,16.00
2023-03-22T00:42:21.400Z,16.00
2023-03-22T00:44:53.692Z,16.00
2023-03-22T00:47:20.316Z,16.00
2023-03-22T00:49:47.021Z,16.00
2023-03-22T00:52:13.863Z,16.00
2023-03-22T00:54:40.603Z,16.00
2023-03-22T00:57:07.856Z,16.00
2023-03-22T00:59:38.445Z,16.00
2023-03-22T01:02:06.565Z,16.00
2023-03-22T01:04:35.527Z,16.00
2023-03-22T01:07:03.795Z,16.00
2023-03-22T01:09:31.164Z,16.00
2023-03-22T01:11:58.119Z,16.00
2023-03-22T01:14:25.749Z,16.00
2023-03-22T01:16:54.909Z,15.90
2023-03-22T01:19:21.776Z,15.90
2023-03-22T01:21:48.458Z,16.00
2023-03-22T01:24:15.644Z,16.00
2023-03-22T01:26:42.630Z,15.90
2023-03-22T01:29:09.308Z,15.90
2023-03-22T01:31:35.956Z,16.00
2023-03-22T01:34:02.853Z,15.90
2023-03-22T01:36:29.650Z,15.90
2023-03-22T01:38:56.330Z,15.90
2023-03-22T01:41:23.072Z,15.90
2023-03-22T01:44:15.666Z,15.90
2023-03-22T01:46:43.205Z,15.90
2023-03-22T01:49:13.649Z,15.90
2023-03-22T01:51:42.191Z,15.90
2023-03-22T01:54:13.177Z,15.90
2023-03-22T01:56:40.789Z,15.90
2023-03-22T01:59:09.437Z,15.90
2023-03-22T02:01:36.215Z,15.90
2023-03-22T02:04:08.901Z,15.90
2023-03-22T02:06:39.567Z,15.90
2023-03-22T02:09:07.852Z,15.80
2023-03-22T02:11:38.561Z,15.80
2023-03-22T02:14:46.961Z,15.80
2023-03-22T02:17:37.870Z,15.80
2023-03-22T02:20:10.934Z,15.80
2023-03-22T02:22:43.819Z,15.80
2023-03-22T02:25:32.185Z,15.80
2023-03-22T02:27:58.814Z,15.80
2023-03-22T02:31:03.023Z,15.80
2023-03-22T02:33:54.222Z,15.70
2023-03-22T02:36:30.818Z,15.80
2023-03-22T02:39:18.588Z,15.70
2023-03-22T02:42:14.565Z,15.70
2023-03-22T02:44:50.602Z,15.70
2023-03-22T02:47:24.733Z,15.70
2023-03-22T02:49:57.857Z,15.70
2023-03-22T02:52:41.821Z,15.70
2023-03-22T02:55:18.783Z,15.70
2023-03-22T02:58:11.433Z,15.70
2023-03-22T03:00:38.934Z,15.70
2023-03-22T03:03:11.469Z,15.70
2023-03-22T03:05:42.965Z,15.70
2023-03-22T03:08:10.598Z,15.70
2023-03-22T03:10:38.423Z,15.70
2023-03-22T03:13:05.591Z,15.70
2023-03-22T03:15:32.292Z,15.70
2023-03-22T03:18:11.505Z,15.70
2023-03-22T03:20:44.072Z,15.70
2023-03-22T03:23:24.478Z,15.70
2023-03-22T03:26:13.067Z,15.70
2023-03-22T03:29:02.047Z,15.70
2023-03-22T03:31:34.784Z,15.70
2023-03-22T03:34:30.988Z,15.70
2023-03-22T03:37:08.298Z,15.70
2023-03-22T03:39:37.842Z,15.60
2023-03-22T03:42:04.551Z,15.70
2023-03-22T03:44:31.305Z,15.60
2023-03-22T03:46:57.977Z,15.60
2023-03-22T03:49:24.677Z,15.60
2023-03-22T03:51:55.394Z,15.60
2023-03-22T03:54:28.243Z,15.60
2023-03-22T03:56:54.912Z,15.60
2023-03-22T03:59:21.809Z,15.60
2023-03-22T04:01:54.366Z,15.60
2023-03-22T04:04:27.017Z,15.60
2023-03-22T04:06:58.641Z,15.60
2023-03-22T04:09:27.300Z,15.60
2023-03-22T04:11:54.706Z,15.60
2023-03-22T04:14:21.541Z,15.60
2023-03-22T04:16:48.257Z,15.50
2023-03-22T04:19:15.482Z,15.60
2023-03-22T04:21:42.204Z,15.60
2023-03-22T04:24:08.968Z,15.60
2023-03-22T04:26:35.812Z,15.60
2023-03-22T04:29:03.090Z,15.60
2023-03-22T04:31:30.881Z,15.60
2023-03-22T04:33:57.632Z,15.60
2023-03-22T04:36:24.520Z,15.60
2023-03-22T04:38:51.612Z,15.50
2023-03-22T04:41:18.741Z,15.50
2023-03-22T04:43:46.974Z,15.50
2023-03-22T04:46:14.020Z,15.60
2023-03-22T04:48:41.221Z,15.50
2023-03-22T04:51:09.358Z,15.50
2023-03-22T04:53:38.851Z,15.50
2023-03-22T04:56:09.868Z,15.50
2023-03-22T04:58:39.809Z,15.50
2023-03-22T05:01:07.325Z,15.60
2023-03-22T05:03:34.127Z,15.50
2023-03-22T05:06:01.467Z,15.50
2023-03-22T05:08:28.956Z,15.50
2023-03-22T05:10:57.236Z,15.50
2023-03-22T05:13:29.537Z,15.50
2023-03-22T05:15:56.246Z,15.50
2023-03-22T05:18:26.173Z,15.50
2023-03-22T05:20:55.681Z,15.50
2023-03-22T05:23:22.954Z,15.50
2023-03-22T05:25:50.819Z,15.50
2023-03-22T05:28:19.588Z,15.50
2023-03-22T05:30:46.672Z,15.50
2023-03-22T05:33:14.199Z,15.50
2023-03-22T05:35:41.611Z,15.50
2023-03-22T05:38:08.536Z,15.50
2023-03-22T05:40:35.249Z,15.50
2023-03-22T05:43:01.940Z,15.50
2023-03-22T05:45:28.598Z,15.50
2023-03-22T05:47:55.308Z,15.50
2023-03-22T05:50:22.724Z,15.50
2023-03-22T05:52:49.478Z,15.50
2023-03-22T05:55:17.672Z,15.50
2023-03-22T05:57:44.681Z,15.50
2023-03-22T06:00:16.333Z,15.50
2023-03-22T06:02:44.016Z,15.50
2023-03-22T06:05:15.516Z,15.50
2023-03-22T06:07:42.465Z,15.50
2023-03-22T06:10:13.374Z,15.50
2023-03-22T06:12:40.194Z,15.50
2023-03-22T06:15:08.064Z,15.50
2023-03-22T06:17:37.851Z,15.50
2023-03-22T06:20:11.807Z,15.50
2023-03-22T06:22:38.602Z,15.50
2023-03-22T06:25:06.923Z,15.50
2023-03-22T06:27:34.035Z,15.50
2023-03-22T06:30:00.760Z,15.50
2023-03-22T06:32:27.564Z,15.50
2023-03-22T06:34:54.766Z,15.60
2023-03-22T06:37:21.653Z,15.50
2023-03-22T06:39:48.443Z,15.50
2023-03-22T06:42:15.607Z,15.50
2023-03-22T06:44:43.906Z,15.50
2023-03-22T06:47:11.656Z,15.50
2023-03-22T06:49:38.782Z,15.50
2023-03-22T06:52:05.681Z,15.50
2023-03-22T06:54:32.966Z,15.50
2023-03-22T06:56:59.676Z,15.60
2023-03-22T06:59:26.601Z,15.70
2023-03-22T07:01:53.243Z,15.80
2023-03-22T07:04:20.150Z,15.90
2023-03-22T07:06:47.070Z,15.90
2023-03-22T07:09:13.761Z,16.00
2023-03-22T07:11:40.530Z,16.10
2023-03-22T07:14:07.265Z,16.10
2023-03-22T07:16:33.931Z,16.10
2023-03-22T07:19:00.876Z,16.00
2023-03-22T07:21:27.532Z,16.10
2023-03-22T07:23:55.180Z,16.10
2023-03-22T07:26:21.908Z,16.10
2023-03-22T07:28:48.649Z,16.10
2023-03-22T07:31:15.690Z,16.10
2023-03-22T07:33:42.459Z,16.10
2023-03-22T07:36:09.760Z,16.10
2023-03-22T07:38:36.539Z,16.10
2023-03-22T07:41:03.498Z,16.10
2023-03-22T07:43:37.162Z,16.10
2023-03-22T07:46:10.928Z,16.10
2023-03-22T07:48:39.067Z,16.00
2023-03-22T07:51:06.033Z,16.00
2023-03-22T07:53:32.715Z,16.00
2023-03-22T07:55:59.385Z,16.00
2023-03-22T07:58:26.268Z,16.10
2023-03-22T08:00:53.085Z,16.00
2023-03-22T08:03:19.919Z,16.00
2023-03-22T08:05:47.675Z,16.00
2023-03-22T08:08:14.396Z,16.00
2023-03-22T08:10:41.318Z,16.00
2023-03-22T08:13:08.153Z,16.00
2023-03-22T08:15:37.398Z,16.00
2023-03-22T08:18:04.216Z,16.00
2023-03-22T08:20:30.951Z,15.90
2023-03-22T08:22:57.601Z,15.90
2023-03-22T08:25:24.449Z,16.00
2023-03-22T08:27:51.143Z,16.00
2023-03-22T08:30:18.294Z,15.90
2023-03-22T08:32:44.972Z,15.90
2023-03-22T08:35:11.960Z,15.90
2023-03-22T08:37:39.617Z,15.90
2023-03-22T08:40:11.468Z,15.90
2023-03-22T08:42:38.332Z,15.90
2023-03-22T08:45:05.970Z,15.90
2023-03-22T08:47:32.731Z,16.00
2023-03-22T08:50:02.235Z,15.90
2023-03-22T08:52:32.591Z,16.00
2023-03-22T08:54:59.294Z,16.00
2023-03-22T08:57:27.676Z,16.00
2023-03-22T08:59:54.504Z,16.00
2023-03-22T09:02:21.251Z,16.00
2023-03-22T09:04:48.286Z,16.00
2023-03-22T09:07:15.353Z,16.00
2023-03-22T09:09:42.025Z,16.10
2023-03-22T09:12:08.885Z,16.00
2023-03-22T09:14:36.045Z,16.10
2023-03-22T09:17:02.822Z,16.10
2023-03-22T09:19:29.547Z,16.10
2023-03-22T09:21:56.266Z,16.10
2023-03-22T09:24:22.986Z,16.10
2023-03-22T09:26:50.034Z,16.10
2023-03-22T09:29:16.743Z,16.10
2023-03-22T09:31:44.560Z,16.20
2023-03-22T09:34:11.239Z,16.20
2023-03-22T09:36:37.896Z,16.20
2023-03-22T09:39:06.963Z,16.20
2023-03-22T09:41:48.575Z,16.10
2023-03-22T09:44:31.365Z,16.20
2023-03-22T09:46:59.964Z,16.20
2023-03-22T09:49:52.601Z,16.20
2023-03-22T09:52:20.410Z,16.20
2023-03-22T09:54:47.162Z,16.20
2023-03-22T09:57:26.232Z,16.20
2023-03-22T10:00:12.452Z,16.20
2023-03-22T10:02:46.399Z,16.20
2023-03-22T10:05:26.503Z,16.20
2023-03-22T10:08:18.197Z,16.20
2023-03-22T10:10:44.913Z,16.20
2023-03-22T10:13:15.453Z,16.20
2023-03-22T10:15:44.118Z,16.20
2023-03-22T10:18:21.388Z,16.20
2023-03-22T10:21:04.614Z,16.20
2023-03-22T10:23:41.233Z,16.30
2023-03-22T10:26:09.364Z,16.30
2023-03-22T10:28:41.270Z,16.30
2023-03-22T10:31:15.706Z,16.30
2023-03-22T10:33:51.854Z,16.30
2023-03-22T10:36:21.063Z,16.40
2023-03-22T10:38:55.742Z,16.40
2023-03-22T10:41:23.541Z,16.40
2023-03-22T10:43:55.644Z,16.40
2023-03-22T10:46:24.424Z,16.40
2023-03-22T10:48:51.903Z,16.40
2023-03-22T10:51:24.480Z,16.40
2023-03-22T10:53:51.752Z,16.40
2023-03-22T10:56:20.061Z,16.40
2023-03-22T10:58:47.425Z,16.40
2023-03-22T11:01:17.081Z,16.50
2023-03-22T11:03:51.130Z,16.50
2023-03-22T11:06:19.587Z,16.50
2023-03-22T11:09:07.301Z,16.50
2023-03-22T11:12:12.553Z,16.50
2023-03-22T11:14:45.031Z,16.50
2023-03-22T11:17:14.124Z,16.50
2023-03-22T11:19:41.907Z,16.50
2023-03-22T11:22:34.106Z,16.50
2023-03-22T11:25:00.907Z,16.50
2023-03-22T11:27:32.978Z,16.50
2023-03-22T11:30:07.982Z,16.60
2023-03-22T11:32:38.465Z,16.80
2023-03-22T11:35:14.929Z,17.00
2023-03-22T11:37:48.744Z,17.20
2023-03-22T11:40:17.591Z,17.40
2023-03-22T11:42:44.779Z,17.50
2023-03-22T11:45:15.592Z,17.60
2023-03-22T11:47:42.317Z,17.60
2023-03-22T11:50:19.504Z,17.70
2023-03-22T11:52:47.828Z,17.80
2023-03-22T11:55:15.478Z,17.70
2023-03-22T11:57:42.175Z,17.80
2023-03-22T12:00:22.226Z,17.70
2023-03-22T12:02:56.026Z,17.70
2023-03-22T12:05:27.639Z,17.60
2023-03-22T12:08:08.639Z,17.70
2023-03-22T12:10:42.572Z,17.70
2023-03-22T12:13:22.490Z,17.60
2023-03-22T12:15:52.789Z,17.60
2023-03-22T12:18:20.163Z,17.50
2023-03-22T12:21:00.253Z,17.60
2023-03-22T12:23:31.283Z,17.60
2023-03-22T12:26:05.318Z,17.60
2023-03-22T12:28:43.767Z,17.60
2023-03-22T12:31:14.054Z,17.50
2023-03-22T12:33:43.484Z,17.50
2023-03-22T12:36:12.019Z,17.50
2023-03-22T12:38:49.071Z,17.50
2023-03-22T12:41:17.138Z,17.40
2023-03-22T12:43:57.810Z,17.40
2023-03-22T12:46:29.797Z,17.40
2023-03-22T12:49:01.405Z,17.40
2023-03-22T12:51:28.125Z,17.30
2023-03-22T12:53:56.803Z,17.30
2023-03-22T12:56:38.513Z,17.30
2023-03-22T12:59:06.513Z,17.20
2023-03-22T13:01:46.408Z,17.20
2023-03-22T13:04:26.672Z,17.20
2023-03-22T13:06:56.814Z,17.20
2023-03-22T13:09:37.024Z,17.30
2023-03-22T13:12:18.505Z,17.20
2023-03-22T13:14:51.336Z,17.20
2023-03-22T13:17:23.976Z,17.20
2023-03-22T13:19:53.711Z,17.20
2023-03-22T13:22:30.833Z,17.20
2023-03-22T13:24:59.219Z,17.20
2023-03-22T13:27:41.796Z,17.20
2023-03-22T13:30:33.397Z,17.20
2023-03-22T13:33:08.669Z,17.20
2023-03-22T13:35:48.879Z,17.20
2023-03-22T13:38:31.664Z,17.20
2023-03-22T13:41:03.941Z,17.20
2023-03-22T13:43:46.328Z,17.10
2023-03-22T13:46:22.078Z,17.20
2023-03-22T13:48:49.804Z,17.10
2023-03-22T13:51:30.322Z,17.20
2023-03-22T13:54:13.230Z,17.10
2023-03-22T13:57:00.155Z,17.20
2023-03-22T13:59:29.953Z,17.10
2023-03-22T14:02:16.301Z,17.10
2023-03-22T14:04:44.819Z,17.20
2023-03-22T14:07:40.568Z,17.20
2023-03-22T14:10:17.399Z,17.20
2023-03-22T14:13:05.862Z,17.10
2023-03-22T14:15:38.909Z,17.10
2023-03-22T14:18:12.538Z,17.10
2023-03-22T14:20:39.490Z,17.10
